sensor_id;sensor_type;location;lat;lon;timestamp;P1;durP1;ratioP1;P2;durP2;ratioP2
70560;SDS011;58109;53.570;10.084;2023-06-05T00:00:01;1219.27;;;254.23;;
70560;SDS011;58109;53.570;10.084;2023-06-05T00:02:31;1220.67;;;254.37;;
70560;SDS011;58109;53.570;10.084;2023-06-05T00:04:57;1288.70;;;265.97;;
70560;SDS011;58109;53.570;10.084;2023-06-05T00:07:26;1440.93;;;297.67;;
70560;SDS011;58109;53.570;10.084;2023-06-05T00:09:57;1250.53;;;264.50;;
70560;SDS011;58109;53.570;10.084;2023-06-05T00:12:22;1259.83;;;263.43;;
70560;SDS011;58109;53.570;10.084;2023-06-05T00:14:48;1376.60;;;291.20;;
70560;SDS011;58109;53.570;10.084;2023-06-05T00:17:13;1425.07;;;300.00;;
70560;SDS011;58109;53.570;10.084;2023-06-05T00:19:38;1420.47;;;298.43;;
70560;SDS011;58109;53.570;10.084;2023-06-05T00:22:09;1655.93;;;356.93;;
70560;SDS011;58109;53.570;10.084;2023-06-05T00:24:34;1890.50;;;447.60;;
70560;SDS011;58109;53.570;10.084;2023-06-05T00:27:00;1947.57;;;484.00;;
70560;SDS011;58109;53.570;10.084;2023-06-05T00:29:25;2109.40;;;551.73;;
70560;SDS011;58109;53.570;10.084;2023-06-05T00:31:53;1887.17;;;470.37;;
70560;SDS011;58109;53.570;10.084;2023-06-05T00:34:21;2266.67;;;860.83;;
70560;SDS011;58109;53.570;10.084;2023-06-05T00:36:51;1478.20;;;327.60;;
70560;SDS011;58109;53.570;10.084;2023-06-05T00:39:17;1615.23;;;390.03;;
70560;SDS011;58109;53.570;10.084;2023-06-05T00:41:50;2058.33;;;667.80;;
70560;SDS011;58109;53.570;10.084;2023-06-05T00:44:17;2266.67;;;871.77;;
70560;SDS011;58109;53.570;10.084;2023-06-05T00:46:45;2122.17;;;717.10;;
70560;SDS011;58109;53.570;10.084;2023-06-05T00:49:13;2266.67;;;999.90;;
70560;SDS011;58109;53.570;10.084;2023-06-05T00:51:39;2266.67;;;999.90;;
70560;SDS011;58109;53.570;10.084;2023-06-05T00:54:15;2266.67;;;999.90;;
70560;SDS011;58109;53.570;10.084;2023-06-05T00:56:43;2266.67;;;999.90;;
70560;SDS011;58109;53.570;10.084;2023-06-05T00:59:11;2266.67;;;976.13;;
70560;SDS011;58109;53.570;10.084;2023-06-05T01:01:41;1373.17;;;321.90;;
70560;SDS011;58109;53.570;10.084;2023-06-05T01:04:13;1467.50;;;297.53;;
70560;SDS011;58109;53.570;10.084;2023-06-05T01:06:38;1484.87;;;312.27;;
70560;SDS011;58109;53.570;10.084;2023-06-05T01:09:05;1506.37;;;317.60;;
70560;SDS011;58109;53.570;10.084;2023-06-05T01:11:43;1881.97;;;477.47;;
70560;SDS011;58109;53.570;10.084;2023-06-05T01:14:23;1903.17;;;493.60;;
70560;SDS011;58109;53.570;10.084;2023-06-05T01:16:55;1731.03;;;397.70;;
70560;SDS011;58109;53.570;10.084;2023-06-05T01:19:22;2266.67;;;999.90;;
70560;SDS011;58109;53.570;10.084;2023-06-05T01:22:00;2266.67;;;999.90;;
70560;SDS011;58109;53.570;10.084;2023-06-05T01:24:26;2266.67;;;999.90;;
70560;SDS011;58109;53.570;10.084;2023-06-05T01:32:41;1770.13;;;474.60;;
70560;SDS011;58109;53.570;10.084;2023-06-05T01:35:12;2132.77;;;999.90;;
70560;SDS011;58109;53.570;10.084;2023-06-05T01:37:45;2243.87;;;999.90;;
70560;SDS011;58109;53.570;10.084;2023-06-05T01:40:15;2266.67;;;999.90;;
70560;SDS011;58109;53.570;10.084;2023-06-05T01:42:44;2266.67;;;999.90;;
70560;SDS011;58109;53.570;10.084;2023-06-05T01:45:16;2266.67;;;999.90;;
70560;SDS011;58109;53.570;10.084;2023-06-05T01:47:45;2266.67;;;999.90;;
70560;SDS011;58109;53.570;10.084;2023-06-05T01:50:13;2266.67;;;999.90;;
70560;SDS011;58109;53.570;10.084;2023-06-05T01:52:42;2266.67;;;999.90;;
70560;SDS011;58109;53.570;10.084;2023-06-05T01:55:21;2266.67;;;999.90;;
70560;SDS011;58109;53.570;10.084;2023-06-05T01:57:56;2266.67;;;999.90;;
70560;SDS011;58109;53.570;10.084;2023-06-05T02:00:21;2266.67;;;999.90;;
70560;SDS011;58109;53.570;10.084;2023-06-05T02:02:49;2266.67;;;999.90;;
70560;SDS011;58109;53.570;10.084;2023-06-05T02:05:16;2266.67;;;999.90;;
70560;SDS011;58109;53.570;10.084;2023-06-05T02:07:45;2266.67;;;999.90;;
70560;SDS011;58109;53.570;10.084;2023-06-05T02:10:20;2266.67;;;999.90;;
70560;SDS011;58109;53.570;10.084;2023-06-05T02:12:46;2266.67;;;999.90;;
70560;SDS011;58109;53.570;10.084;2023-06-05T02:15:12;2266.67;;;999.90;;
70560;SDS011;58109;53.570;10.084;2023-06-05T02:17:43;2266.67;;;999.90;;
70560;SDS011;58109;53.570;10.084;2023-06-05T02:20:24;2266.67;;;999.90;;
70560;SDS011;58109;53.570;10.084;2023-06-05T02:22:50;2266.67;;;999.90;;
70560;SDS011;58109;53.570;10.084;2023-06-05T02:25:19;2266.67;;;999.90;;
70560;SDS011;58109;53.570;10.084;2023-06-05T02:27:48;1840.93;;;558.17;;
70560;SDS011;58109;53.570;10.084;2023-06-05T02:30:18;1682.20;;;595.07;;
70560;SDS011;58109;53.570;10.084;2023-06-05T02:32:49;1939.50;;;911.17;;
70560;SDS011;58109;53.570;10.084;2023-06-05T02:35:24;2024.33;;;999.90;;
70560;SDS011;58109;53.570;10.084;2023-06-05T02:37:49;2144.83;;;999.90;;
70560;SDS011;58109;53.570;10.084;2023-06-05T02:40:17;1842.40;;;677.60;;
70560;SDS011;58109;53.570;10.084;2023-06-05T02:42:45;2076.07;;;950.10;;
70560;SDS011;58109;53.570;10.084;2023-06-05T02:45:10;1911.40;;;996.03;;
70560;SDS011;58109;53.570;10.084;2023-06-05T02:47:38;1963.67;;;999.90;;
70560;SDS011;58109;53.570;10.084;2023-06-05T02:50:08;2058.40;;;999.90;;
70560;SDS011;58109;53.570;10.084;2023-06-05T02:52:34;1759.03;;;846.73;;
70560;SDS011;58109;53.570;10.084;2023-06-05T02:55:01;2044.60;;;999.90;;
70560;SDS011;58109;53.570;10.084;2023-06-05T02:57:32;1960.73;;;999.90;;
70560;SDS011;58109;53.570;10.084;2023-06-05T03:00:09;2017.67;;;999.90;;
70560;SDS011;58109;53.570;10.084;2023-06-05T03:02:39;2018.80;;;999.90;;
70560;SDS011;58109;53.570;10.084;2023-06-05T03:05:05;1857.50;;;993.47;;
70560;SDS011;58109;53.570;10.084;2023-06-05T03:07:31;2172.03;;;999.90;;
70560;SDS011;58109;53.570;10.084;2023-06-05T03:09:58;2152.23;;;999.90;;
70560;SDS011;58109;53.570;10.084;2023-06-05T03:12:29;2096.30;;;999.90;;
70560;SDS011;58109;53.570;10.084;2023-06-05T03:14:54;1908.23;;;999.90;;
70560;SDS011;58109;53.570;10.084;2023-06-05T03:17:22;2103.90;;;999.90;;
70560;SDS011;58109;53.570;10.084;2023-06-05T03:19:49;2095.77;;;999.90;;
70560;SDS011;58109;53.570;10.084;2023-06-05T03:22:17;2179.50;;;999.90;;
70560;SDS011;58109;53.570;10.084;2023-06-05T03:24:42;2117.57;;;999.90;;
70560;SDS011;58109;53.570;10.084;2023-06-05T03:27:08;2160.70;;;999.90;;
70560;SDS011;58109;53.570;10.084;2023-06-05T03:29:36;2136.73;;;999.90;;
70560;SDS011;58109;53.570;10.084;2023-06-05T03:32:02;2018.43;;;999.90;;
70560;SDS011;58109;53.570;10.084;2023-06-05T03:34:27;2046.77;;;999.90;;
70560;SDS011;58109;53.570;10.084;2023-06-05T03:36:55;2041.17;;;999.90;;
70560;SDS011;58109;53.570;10.084;2023-06-05T03:39:23;1997.33;;;999.90;;
70560;SDS011;58109;53.570;10.084;2023-06-05T03:41:52;1951.83;;;999.90;;
70560;SDS011;58109;53.570;10.084;2023-06-05T03:44:20;1947.57;;;901.80;;
70560;SDS011;58109;53.570;10.084;2023-06-05T03:46:47;1677.63;;;677.30;;
70560;SDS011;58109;53.570;10.084;2023-06-05T03:49:13;1606.40;;;709.33;;
70560;SDS011;58109;53.570;10.084;2023-06-05T03:51:38;1675.93;;;856.07;;
70560;SDS011;58109;53.570;10.084;2023-06-05T03:54:07;1772.97;;;999.90;;
70560;SDS011;58109;53.570;10.084;2023-06-05T03:56:33;1809.23;;;999.90;;
70560;SDS011;58109;53.570;10.084;2023-06-05T03:59:04;1786.37;;;999.90;;
70560;SDS011;58109;53.570;10.084;2023-06-05T04:01:46;1808.57;;;999.90;;
70560;SDS011;58109;53.570;10.084;2023-06-05T04:04:11;1867.83;;;999.90;;
70560;SDS011;58109;53.570;10.084;2023-06-05T04:06:37;1790.17;;;999.90;;
70560;SDS011;58109;53.570;10.084;2023-06-05T04:09:05;1765.03;;;999.90;;
70560;SDS011;58109;53.570;10.084;2023-06-05T04:11:37;1690.63;;;999.90;;
70560;SDS011;58109;53.570;10.084;2023-06-05T04:14:04;1772.07;;;999.90;;
70560;SDS011;58109;53.570;10.084;2023-06-05T04:16:30;1608.70;;;897.50;;
70560;SDS011;58109;53.570;10.084;2023-06-05T04:18:58;1678.57;;;944.53;;
70560;SDS011;58109;53.570;10.084;2023-06-05T04:21:23;1663.03;;;959.17;;
70560;SDS011;58109;53.570;10.084;2023-06-05T04:23:52;1882.40;;;999.90;;
70560;SDS011;58109;53.570;10.084;2023-06-05T04:26:17;1874.47;;;999.90;;
70560;SDS011;58109;53.570;10.084;2023-06-05T04:28:44;1776.50;;;999.90;;
70560;SDS011;58109;53.570;10.084;2023-06-05T04:31:10;1618.80;;;691.60;;
70560;SDS011;58109;53.570;10.084;2023-06-05T04:33:39;1465.20;;;379.27;;
70560;SDS011;58109;53.570;10.084;2023-06-05T04:36:04;1333.73;;;301.77;;
70560;SDS011;58109;53.570;10.084;2023-06-05T04:38:32;1513.33;;;404.67;;
70560;SDS011;58109;53.570;10.084;2023-06-05T04:41:02;1668.03;;;514.43;;
70560;SDS011;58109;53.570;10.084;2023-06-05T04:43:27;1578.30;;;414.67;;
70560;SDS011;58109;53.570;10.084;2023-06-05T04:45:53;1635.37;;;598.20;;
70560;SDS011;58109;53.570;10.084;2023-06-05T04:48:19;1612.03;;;648.97;;
70560;SDS011;58109;53.570;10.084;2023-06-05T04:50:44;1597.67;;;612.77;;
70560;SDS011;58109;53.570;10.084;2023-06-05T04:53:13;1506.37;;;508.73;;
70560;SDS011;58109;53.570;10.084;2023-06-05T04:55:38;1585.10;;;651.30;;
70560;SDS011;58109;53.570;10.084;2023-06-05T04:58:04;1982.93;;;967.73;;
70560;SDS011;58109;53.570;10.084;2023-06-05T05:00:31;1759.87;;;687.47;;
70560;SDS011;58109;53.570;10.084;2023-06-05T05:03:01;1983.90;;;783.70;;
70560;SDS011;58109;53.570;10.084;2023-06-05T05:05:27;2062.07;;;867.37;;
70560;SDS011;58109;53.570;10.084;2023-06-05T05:07:55;1993.83;;;905.23;;
70560;SDS011;58109;53.570;10.084;2023-06-05T05:10:21;2022.03;;;882.17;;
70560;SDS011;58109;53.570;10.084;2023-06-05T05:12:46;2023.57;;;789.87;;
70560;SDS011;58109;53.570;10.084;2023-06-05T05:15:12;1863.13;;;635.87;;
70560;SDS011;58109;53.570;10.084;2023-06-05T05:17:37;2053.73;;;768.00;;
70560;SDS011;58109;53.570;10.084;2023-06-05T05:20:05;2032.13;;;769.70;;
70560;SDS011;58109;53.570;10.084;2023-06-05T05:22:31;2049.10;;;692.40;;
70560;SDS011;58109;53.570;10.084;2023-06-05T05:24:57;1524.13;;;374.33;;
70560;SDS011;58109;53.570;10.084;2023-06-05T05:27:22;1556.40;;;382.20;;
70560;SDS011;58109;53.570;10.084;2023-06-05T05:29:49;1591.97;;;404.43;;
70560;SDS011;58109;53.570;10.084;2023-06-05T05:32:14;2266.67;;;936.73;;
70560;SDS011;58109;53.570;10.084;2023-06-05T05:34:40;2266.67;;;808.13;;
70560;SDS011;58109;53.570;10.084;2023-06-05T05:37:05;1815.60;;;485.10;;
70560;SDS011;58109;53.570;10.084;2023-06-05T05:39:33;1821.43;;;492.33;;
70560;SDS011;58109;53.570;10.084;2023-06-05T05:41:58;1670.20;;;414.30;;
70560;SDS011;58109;53.570;10.084;2023-06-05T05:44:27;1701.60;;;429.30;;
70560;SDS011;58109;53.570;10.084;2023-06-05T05:46:55;1968.27;;;573.17;;
70560;SDS011;58109;53.570;10.084;2023-06-05T05:49:21;2204.97;;;793.90;;
70560;SDS011;58109;53.570;10.084;2023-06-05T05:51:46;2014.07;;;604.73;;
70560;SDS011;58109;53.570;10.084;2023-06-05T05:54:14;1589.13;;;372.77;;
70560;SDS011;58109;53.570;10.084;2023-06-05T05:56:44;1728.43;;;429.93;;
70560;SDS011;58109;53.570;10.084;2023-06-05T05:59:09;1803.10;;;460.80;;
70560;SDS011;58109;53.570;10.084;2023-06-05T06:01:37;1929.80;;;546.07;;
70560;SDS011;58109;53.570;10.084;2023-06-05T06:04:03;1921.77;;;571.83;;
70560;SDS011;58109;53.570;10.084;2023-06-05T06:06:28;2266.67;;;940.00;;
70560;SDS011;58109;53.570;10.084;2023-06-05T06:08:56;2127.40;;;847.83;;
70560;SDS011;58109;53.570;10.084;2023-06-05T06:11:22;2266.67;;;999.90;;
70560;SDS011;58109;53.570;10.084;2023-06-05T06:13:48;2266.67;;;999.90;;
70560;SDS011;58109;53.570;10.084;2023-06-05T06:16:13;1947.90;;;542.40;;
70560;SDS011;58109;53.570;10.084;2023-06-05T06:18:39;1699.37;;;438.77;;
70560;SDS011;58109;53.570;10.084;2023-06-05T06:21:05;1948.43;;;527.33;;
70560;SDS011;58109;53.570;10.084;2023-06-05T06:23:33;2094.27;;;625.73;;
70560;SDS011;58109;53.570;10.084;2023-06-05T06:25:58;2266.67;;;772.63;;
70560;SDS011;58109;53.570;10.084;2023-06-05T06:28:24;2266.67;;;885.90;;
70560;SDS011;58109;53.570;10.084;2023-06-05T06:30:52;2266.67;;;986.33;;
70560;SDS011;58109;53.570;10.084;2023-06-05T06:33:17;2266.67;;;999.90;;
70560;SDS011;58109;53.570;10.084;2023-06-05T06:35:43;2266.67;;;999.90;;
70560;SDS011;58109;53.570;10.084;2023-06-05T06:38:14;2266.67;;;999.90;;
70560;SDS011;58109;53.570;10.084;2023-06-05T06:40:39;2266.67;;;999.90;;
70560;SDS011;58109;53.570;10.084;2023-06-05T06:43:07;2266.67;;;882.03;;
70560;SDS011;58109;53.570;10.084;2023-06-05T06:45:32;2266.67;;;923.10;;
70560;SDS011;58109;53.570;10.084;2023-06-05T06:47:58;2266.67;;;989.07;;
70560;SDS011;58109;53.570;10.084;2023-06-05T06:50:23;2212.43;;;567.17;;
70560;SDS011;58109;53.570;10.084;2023-06-05T06:52:49;2074.07;;;511.93;;
70560;SDS011;58109;53.570;10.084;2023-06-05T06:55:16;2147.80;;;544.83;;
70560;SDS011;58109;53.570;10.084;2023-06-05T06:57:42;2266.67;;;708.80;;
70560;SDS011;58109;53.570;10.084;2023-06-05T07:00:10;2039.63;;;510.20;;
70560;SDS011;58109;53.570;10.084;2023-06-05T07:02:36;2075.73;;;526.23;;
70560;SDS011;58109;53.570;10.084;2023-06-05T07:05:05;2120.90;;;547.93;;
70560;SDS011;58109;53.570;10.084;2023-06-05T07:07:31;2266.67;;;715.97;;
70560;SDS011;58109;53.570;10.084;2023-06-05T07:09:56;1641.40;;;375.50;;
70560;SDS011;58109;53.570;10.084;2023-06-05T07:12:23;1693.60;;;388.13;;
70560;SDS011;58109;53.570;10.084;2023-06-05T07:14:48;1631.30;;;376.80;;
70560;SDS011;58109;53.570;10.084;2023-06-05T07:17:16;1763.40;;;411.70;;
70560;SDS011;58109;53.570;10.084;2023-06-05T07:19:46;1750.63;;;406.60;;
70560;SDS011;58109;53.570;10.084;2023-06-05T07:22:14;1745.40;;;403.37;;
70560;SDS011;58109;53.570;10.084;2023-06-05T07:24:42;1693.70;;;389.50;;
70560;SDS011;58109;53.570;10.084;2023-06-05T07:27:09;1532.00;;;347.97;;
70560;SDS011;58109;53.570;10.084;2023-06-05T07:29:37;1617.23;;;366.67;;
70560;SDS011;58109;53.570;10.084;2023-06-05T07:32:03;1734.73;;;397.60;;
70560;SDS011;58109;53.570;10.084;2023-06-05T07:34:32;1730.63;;;394.43;;
70560;SDS011;58109;53.570;10.084;2023-06-05T07:37:00;1700.33;;;390.13;;
70560;SDS011;58109;53.570;10.084;2023-06-05T07:39:26;1702.47;;;388.73;;
70560;SDS011;58109;53.570;10.084;2023-06-05T07:41:54;1614.70;;;372.27;;
70560;SDS011;58109;53.570;10.084;2023-06-05T07:44:22;1643.53;;;379.93;;
70560;SDS011;58109;53.570;10.084;2023-06-05T07:46:50;1721.67;;;399.67;;
70560;SDS011;58109;53.570;10.084;2023-06-05T07:49:18;1715.30;;;398.77;;
70560;SDS011;58109;53.570;10.084;2023-06-05T07:51:50;1617.00;;;373.70;;
70560;SDS011;58109;53.570;10.084;2023-06-05T07:54:16;1670.23;;;387.30;;
70560;SDS011;58109;53.570;10.084;2023-06-05T07:56:45;1633.53;;;380.03;;
70560;SDS011;58109;53.570;10.084;2023-06-05T07:59:14;1695.57;;;400.77;;
70560;SDS011;58109;53.570;10.084;2023-06-05T08:01:40;1624.17;;;375.87;;
70560;SDS011;58109;53.570;10.084;2023-06-05T08:04:10;1814.90;;;420.13;;
70560;SDS011;58109;53.570;10.084;2023-06-05T08:06:38;1548.13;;;351.00;;
70560;SDS011;58109;53.570;10.084;2023-06-05T08:09:05;1552.23;;;358.07;;
70560;SDS011;58109;53.570;10.084;2023-06-05T08:11:36;1517.07;;;352.10;;
70560;SDS011;58109;53.570;10.084;2023-06-05T08:14:05;1533.37;;;356.43;;
70560;SDS011;58109;53.570;10.084;2023-06-05T08:16:34;1657.97;;;380.90;;
70560;SDS011;58109;53.570;10.084;2023-06-05T08:19:04;1694.33;;;384.60;;
70560;SDS011;58109;53.570;10.084;2023-06-05T08:21:33;1702.90;;;389.83;;
70560;SDS011;58109;53.570;10.084;2023-06-05T08:23:58;1697.87;;;395.17;;
70560;SDS011;58109;53.570;10.084;2023-06-05T08:26:24;1749.70;;;406.43;;
70560;SDS011;58109;53.570;10.084;2023-06-05T08:28:52;1500.77;;;352.73;;
70560;SDS011;58109;53.570;10.084;2023-06-05T08:31:17;1564.37;;;369.47;;
70560;SDS011;58109;53.570;10.084;2023-06-05T08:33:48;1694.37;;;396.93;;
70560;SDS011;58109;53.570;10.084;2023-06-05T08:36:14;1851.03;;;436.07;;
70560;SDS011;58109;53.570;10.084;2023-06-05T08:38:43;1739.70;;;409.60;;
70560;SDS011;58109;53.570;10.084;2023-06-05T08:41:12;2260.07;;;643.23;;
70560;SDS011;58109;53.570;10.084;2023-06-05T08:43:39;1994.80;;;485.20;;
70560;SDS011;58109;53.570;10.084;2023-06-05T08:46:09;1514.17;;;357.23;;
70560;SDS011;58109;53.570;10.084;2023-06-05T08:48:38;1463.47;;;346.37;;
70560;SDS011;58109;53.570;10.084;2023-06-05T08:51:15;1585.93;;;373.50;;
70560;SDS011;58109;53.570;10.084;2023-06-05T08:53:42;1207.10;;;297.93;;
70560;SDS011;58109;53.570;10.084;2023-06-05T08:56:14;1817.77;;;434.33;;
70560;SDS011;58109;53.570;10.084;2023-06-05T08:58:42;2149.63;;;554.97;;
70560;SDS011;58109;53.570;10.084;2023-06-05T09:01:09;2150.90;;;541.73;;
70560;SDS011;58109;53.570;10.084;2023-06-05T09:03:34;2176.23;;;562.30;;
70560;SDS011;58109;53.570;10.084;2023-06-05T09:06:00;2266.67;;;620.90;;
70560;SDS011;58109;53.570;10.084;2023-06-05T09:08:31;1897.10;;;486.10;;
70560;SDS011;58109;53.570;10.084;2023-06-05T09:13:54;731.33;;;199.13;;
70560;SDS011;58109;53.570;10.084;2023-06-05T09:16:31;718.00;;;197.80;;
70560;SDS011;58109;53.570;10.084;2023-06-05T09:18:58;803.13;;;218.30;;
70560;SDS011;58109;53.570;10.084;2023-06-05T09:21:26;673.90;;;183.43;;
70560;SDS011;58109;53.570;10.084;2023-06-05T09:27:03;706.03;;;191.53;;
70560;SDS011;58109;53.570;10.084;2023-06-05T09:29:36;1001.53;;;263.93;;
70560;SDS011;58109;53.570;10.084;2023-06-05T09:34:40;960.73;;;253.70;;
70560;SDS011;58109;53.570;10.084;2023-06-05T09:37:06;917.80;;;247.20;;
70560;SDS011;58109;53.570;10.084;2023-06-05T09:39:33;767.30;;;211.67;;
70560;SDS011;58109;53.570;10.084;2023-06-05T09:42:10;876.67;;;237.27;;
70560;SDS011;58109;53.570;10.084;2023-06-05T09:44:36;952.57;;;254.90;;
70560;SDS011;58109;53.570;10.084;2023-06-05T09:47:08;788.37;;;219.17;;
70560;SDS011;58109;53.570;10.084;2023-06-05T09:52:07;825.13;;;229.90;;
70560;SDS011;58109;53.570;10.084;2023-06-05T09:54:36;812.23;;;225.37;;
70560;SDS011;58109;53.570;10.084;2023-06-05T09:57:04;836.33;;;230.27;;
70560;SDS011;58109;53.570;10.084;2023-06-05T09:59:32;723.67;;;202.40;;
70560;SDS011;58109;53.570;10.084;2023-06-05T10:02:05;528.97;;;152.97;;
70560;SDS011;58109;53.570;10.084;2023-06-05T10:04:38;832.47;;;230.73;;
70560;SDS011;58109;53.570;10.084;2023-06-05T10:07:08;611.23;;;174.97;;
70560;SDS011;58109;53.570;10.084;2023-06-05T10:09:34;571.03;;;165.77;;
70560;SDS011;58109;53.570;10.084;2023-06-05T10:12:00;776.53;;;218.57;;
70560;SDS011;58109;53.570;10.084;2023-06-05T10:14:33;721.77;;;206.90;;
70560;SDS011;58109;53.570;10.084;2023-06-05T10:17:02;694.47;;;198.33;;
70560;SDS011;58109;53.570;10.084;2023-06-05T10:19:28;771.50;;;220.00;;
70560;SDS011;58109;53.570;10.084;2023-06-05T10:21:55;842.43;;;235.73;;
70560;SDS011;58109;53.570;10.084;2023-06-05T10:24:28;525.07;;;153.03;;
70560;SDS011;58109;53.570;10.084;2023-06-05T10:27:04;538.70;;;157.07;;
70560;SDS011;58109;53.570;10.084;2023-06-05T10:32:42;764.20;;;217.43;;
70560;SDS011;58109;53.570;10.084;2023-06-05T10:35:27;761.87;;;215.63;;
70560;SDS011;58109;53.570;10.084;2023-06-05T10:40:41;795.23;;;225.13;;
70560;SDS011;58109;53.570;10.084;2023-06-05T10:43:28;924.70;;;257.83;;
70560;SDS011;58109;53.570;10.084;2023-06-05T10:45:56;737.73;;;207.97;;
70560;SDS011;58109;53.570;10.084;2023-06-05T10:54:04;669.70;;;192.50;;
70560;SDS011;58109;53.570;10.084;2023-06-05T10:59:25;821.87;;;234.17;;
70560;SDS011;58109;53.570;10.084;2023-06-05T11:07:19;818.80;;;234.20;;
70560;SDS011;58109;53.570;10.084;2023-06-05T11:15:08;948.70;;;266.13;;
70560;SDS011;58109;53.570;10.084;2023-06-05T11:17:38;931.10;;;259.43;;
70560;SDS011;58109;53.570;10.084;2023-06-05T11:27:50;926.43;;;261.03;;
70560;SDS011;58109;53.570;10.084;2023-06-05T11:30:16;848.20;;;242.00;;
70560;SDS011;58109;53.570;10.084;2023-06-05T11:32:43;953.03;;;265.90;;
70560;SDS011;58109;53.570;10.084;2023-06-05T11:35:09;848.03;;;239.40;;
70560;SDS011;58109;53.570;10.084;2023-06-05T11:37:35;986.70;;;274.77;;
70560;SDS011;58109;53.570;10.084;2023-06-05T11:40:04;901.73;;;255.10;;
70560;SDS011;58109;53.570;10.084;2023-06-05T11:42:30;957.73;;;269.37;;
70560;SDS011;58109;53.570;10.084;2023-06-05T11:44:56;840.43;;;242.97;;
70560;SDS011;58109;53.570;10.084;2023-06-05T11:47:25;892.57;;;253.60;;
70560;SDS011;58109;53.570;10.084;2023-06-05T11:50:06;808.83;;;236.43;;
70560;SDS011;58109;53.570;10.084;2023-06-05T11:52:33;814.53;;;235.67;;
70560;SDS011;58109;53.570;10.084;2023-06-05T11:55:10;914.23;;;257.77;;
70560;SDS011;58109;53.570;10.084;2023-06-05T11:57:46;866.70;;;249.40;;
70560;SDS011;58109;53.570;10.084;2023-06-05T12:00:12;895.47;;;258.50;;
70560;SDS011;58109;53.570;10.084;2023-06-05T12:02:38;935.63;;;266.20;;
70560;SDS011;58109;53.570;10.084;2023-06-05T12:05:07;1099.87;;;303.30;;
70560;SDS011;58109;53.570;10.084;2023-06-05T12:07:33;1146.57;;;313.73;;
70560;SDS011;58109;53.570;10.084;2023-06-05T12:10:05;944.83;;;269.07;;
70560;SDS011;58109;53.570;10.084;2023-06-05T12:12:32;1103.10;;;302.00;;
70560;SDS011;58109;53.570;10.084;2023-06-05T12:15:20;1093.67;;;302.17;;
70560;SDS011;58109;53.570;10.084;2023-06-05T12:17:50;914.03;;;261.37;;
70560;SDS011;58109;53.570;10.084;2023-06-05T12:20:16;1258.57;;;337.27;;
70560;SDS011;58109;53.570;10.084;2023-06-05T12:22:42;1269.60;;;341.57;;
70560;SDS011;58109;53.570;10.084;2023-06-05T12:25:17;1074.53;;;300.50;;
70560;SDS011;58109;53.570;10.084;2023-06-05T12:27:43;925.03;;;260.40;;
70560;SDS011;58109;53.570;10.084;2023-06-05T12:30:12;954.80;;;268.13;;
70560;SDS011;58109;53.570;10.084;2023-06-05T12:32:41;1137.30;;;310.80;;
70560;SDS011;58109;53.570;10.084;2023-06-05T12:35:22;1013.60;;;285.93;;
70560;SDS011;58109;53.570;10.084;2023-06-05T12:37:48;994.03;;;280.30;;
70560;SDS011;58109;53.570;10.084;2023-06-05T12:40:17;1094.70;;;303.77;;
70560;SDS011;58109;53.570;10.084;2023-06-05T12:42:46;1125.10;;;307.50;;
70560;SDS011;58109;53.570;10.084;2023-06-05T12:45:15;1155.43;;;320.57;;
70560;SDS011;58109;53.570;10.084;2023-06-05T12:47:41;907.43;;;259.03;;
70560;SDS011;58109;53.570;10.084;2023-06-05T12:50:08;1087.63;;;303.17;;
70560;SDS011;58109;53.570;10.084;2023-06-05T12:52:37;1045.30;;;292.07;;
70560;SDS011;58109;53.570;10.084;2023-06-05T12:55:03;1064.17;;;298.43;;
70560;SDS011;58109;53.570;10.084;2023-06-05T12:57:30;933.50;;;262.13;;
70560;SDS011;58109;53.570;10.084;2023-06-05T12:59:57;976.70;;;274.07;;
70560;SDS011;58109;53.570;10.084;2023-06-05T13:02:22;1037.07;;;286.70;;
70560;SDS011;58109;53.570;10.084;2023-06-05T13:04:50;1024.23;;;288.07;;
70560;SDS011;58109;53.570;10.084;2023-06-05T13:07:18;1040.07;;;292.30;;
70560;SDS011;58109;53.570;10.084;2023-06-05T13:09:47;1027.20;;;289.30;;
70560;SDS011;58109;53.570;10.084;2023-06-05T13:12:15;945.10;;;265.40;;
70560;SDS011;58109;53.570;10.084;2023-06-05T13:14:42;964.70;;;270.73;;
70560;SDS011;58109;53.570;10.084;2023-06-05T13:17:12;993.33;;;278.27;;
70560;SDS011;58109;53.570;10.084;2023-06-05T13:19:38;1128.47;;;310.00;;
70560;SDS011;58109;53.570;10.084;2023-06-05T13:22:06;1133.70;;;313.10;;
70560;SDS011;58109;53.570;10.084;2023-06-05T13:24:31;1070.70;;;296.03;;
70560;SDS011;58109;53.570;10.084;2023-06-05T13:27:02;1069.77;;;298.53;;
70560;SDS011;58109;53.570;10.084;2023-06-05T13:29:31;1039.80;;;291.83;;
70560;SDS011;58109;53.570;10.084;2023-06-05T13:31:59;1023.53;;;285.17;;
70560;SDS011;58109;53.570;10.084;2023-06-05T13:34:24;1011.30;;;289.13;;
70560;SDS011;58109;53.570;10.084;2023-06-05T13:36:50;1212.90;;;333.23;;
70560;SDS011;58109;53.570;10.084;2023-06-05T13:39:17;1381.10;;;366.50;;
70560;SDS011;58109;53.570;10.084;2023-06-05T13:41:45;1264.63;;;336.63;;
70560;SDS011;58109;53.570;10.084;2023-06-05T13:44:10;1216.53;;;333.13;;
70560;SDS011;58109;53.570;10.084;2023-06-05T13:46:42;1239.00;;;338.77;;
70560;SDS011;58109;53.570;10.084;2023-06-05T13:49:08;1214.77;;;333.10;;
70560;SDS011;58109;53.570;10.084;2023-06-05T13:51:35;1254.57;;;340.80;;
70560;SDS011;58109;53.570;10.084;2023-06-05T13:54:05;914.63;;;259.77;;
70560;SDS011;58109;53.570;10.084;2023-06-05T13:56:31;1356.60;;;359.03;;
70560;SDS011;58109;53.570;10.084;2023-06-05T13:58:58;1174.60;;;323.07;;
70560;SDS011;58109;53.570;10.084;2023-06-05T14:01:26;1193.33;;;327.53;;
70560;SDS011;58109;53.570;10.084;2023-06-05T14:03:52;1019.67;;;284.17;;
70560;SDS011;58109;53.570;10.084;2023-06-05T14:06:17;1007.97;;;282.13;;
70560;SDS011;58109;53.570;10.084;2023-06-05T14:08:47;973.60;;;274.20;;
70560;SDS011;58109;53.570;10.084;2023-06-05T14:11:13;983.53;;;275.40;;
70560;SDS011;58109;53.570;10.084;2023-06-05T14:13:41;985.27;;;276.90;;
70560;SDS011;58109;53.570;10.084;2023-06-05T14:16:07;1019.30;;;284.80;;
70560;SDS011;58109;53.570;10.084;2023-06-05T14:18:38;888.13;;;252.60;;
70560;SDS011;58109;53.570;10.084;2023-06-05T14:21:06;916.10;;;255.43;;
70560;SDS011;58109;53.570;10.084;2023-06-05T14:23:32;876.33;;;249.43;;
70560;SDS011;58109;53.570;10.084;2023-06-05T14:25:57;1055.90;;;289.60;;
70560;SDS011;58109;53.570;10.084;2023-06-05T14:28:23;924.87;;;268.33;;
70560;SDS011;58109;53.570;10.084;2023-06-05T14:30:57;971.00;;;274.30;;